sensor_id;sensor_type;location;lat;lon;timestamp;pressure;altitude;pressure_sealevel;temperature;humidity
25650;BME280;13505;45.196;5.696;2023-09-18T04:33:08;98649.16;;;23.56;69.87
25650;BME280;13505;45.196;5.696;2023-09-18T04:37:59;98629.47;;;23.39;70.05
25650;BME280;13505;45.196;5.696;2023-09-18T04:42:49;98639.66;;;23.19;70.39
25650;BME280;13505;45.196;5.696;2023-09-18T04:47:40;98631.91;;;23.07;69.07
25650;BME280;13505;45.196;5.696;2023-09-18T04:52:30;98623.31;;;22.95;68.33
25650;BME280;13505;45.196;5.696;2023-09-18T04:57:21;98659.66;;;23.08;67.10
25650;BME280;13505;45.196;5.696;2023-09-18T05:02:12;98637.94;;;23.01;67.19
25650;BME280;13505;45.196;5.696;2023-09-18T05:07:02;98629.41;;;23.06;67.56
25650;BME280;13505;45.196;5.696;2023-09-18T05:11:53;98629.53;;;22.96;68.01
25650;BME280;13505;45.196;5.696;2023-09-18T05:16:43;98637.06;;;22.84;69.21
25650;BME280;13505;45.196;5.696;2023-09-18T05:21:33;98633.06;;;23.05;68.01
25650;BME280;13505;45.196;5.696;2023-09-18T05:26:24;98629.91;;;23.18;67.72
25650;BME280;13505;45.196;5.696;2023-09-18T05:31:15;98611.25;;;23.16;67.32
25650;BME280;13505;45.196;5.696;2023-09-18T05:36:05;98636.47;;;23.23;67.25
25650;BME280;13505;45.196;5.696;2023-09-18T05:40:56;98641.50;;;23.10;67.61
25650;BME280;13505;45.196;5.696;2023-09-18T05:45:46;98638.97;;;23.08;67.89
25650;BME280;13505;45.196;5.696;2023-09-18T05:50:38;98646.84;;;23.02;68.07
25650;BME280;13505;45.196;5.696;2023-09-18T05:55:28;98643.97;;;22.95;68.72
25650;BME280;13505;45.196;5.696;2023-09-18T06:00:19;98675.19;;;22.88;69.18
25650;BME280;13505;45.196;5.696;2023-09-18T06:05:10;98660.44;;;22.92;68.93
25650;BME280;13505;45.196;5.696;2023-09-18T06:10:03;98659.06;;;22.88;69.05
25650;BME280;13505;45.196;5.696;2023-09-18T06:14:54;98675.03;;;22.89;68.80
25650;BME280;13505;45.196;5.696;2023-09-18T06:19:45;98675.19;;;22.88;69.04
25650;BME280;13505;45.196;5.696;2023-09-18T06:24:36;98679.91;;;22.85;68.94
25650;BME280;13505;45.196;5.696;2023-09-18T06:29:26;98684.63;;;22.92;68.50
25650;BME280;13505;45.196;5.696;2023-09-18T06:34:17;98663.81;;;22.94;68.50
25650;BME280;13505;45.196;5.696;2023-09-18T06:39:07;98651.34;;;22.84;69.32
25650;BME280;13505;45.196;5.696;2023-09-18T06:43:57;98657.63;;;22.67;70.02
25650;BME280;13505;45.196;5.696;2023-09-18T06:48:48;98662.53;;;22.63;70.63
25650;BME280;13505;45.196;5.696;2023-09-18T06:53:41;98691.59;;;22.68;70.75
25650;BME280;13505;45.196;5.696;2023-09-18T06:58:31;98655.41;;;22.54;71.47
25650;BME280;13505;45.196;5.696;2023-09-18T07:03:22;98686.41;;;22.75;70.38
25650;BME280;13505;45.196;5.696;2023-09-18T07:08:13;98735.34;;;22.86;69.46
25650;BME280;13505;45.196;5.696;2023-09-18T07:13:06;98753.34;;;22.86;69.87
25650;BME280;13505;45.196;5.696;2023-09-18T07:17:56;98763.50;;;22.74;71.33
25650;BME280;13505;45.196;5.696;2023-09-18T07:22:47;98795.63;;;22.76;74.31
25650;BME280;13505;45.196;5.696;2023-09-18T07:27:37;98802.97;;;22.29;80.37
25650;BME280;13505;45.196;5.696;2023-09-18T07:32:30;98780.06;;;21.98;84.87
25650;BME280;13505;45.196;5.696;2023-09-18T07:37:20;98793.16;;;22.01;87.32
25650;BME280;13505;45.196;5.696;2023-09-18T07:42:11;98804.75;;;21.84;88.23
25650;BME280;13505;45.196;5.696;2023-09-18T07:47:01;98796.63;;;21.94;85.48
25650;BME280;13505;45.196;5.696;2023-09-18T07:51:51;98790.34;;;21.67;89.52
25650;BME280;13505;45.196;5.696;2023-09-18T07:56:42;98782.13;;;22.05;85.65
25650;BME280;13505;45.196;5.696;2023-09-18T08:01:33;98778.44;;;22.24;84.00
25650;BME280;13505;45.196;5.696;2023-09-18T08:06:24;98780.16;;;22.51;82.37
25650;BME280;13505;45.196;5.696;2023-09-18T08:11:15;98805.78;;;22.64;81.98
25650;BME280;13505;45.196;5.696;2023-09-18T08:16:06;98789.03;;;21.71;87.99
25650;BME280;13505;45.196;5.696;2023-09-18T08:20:57;98807.56;;;23.08;79.77
25650;BME280;13505;45.196;5.696;2023-09-18T08:25:48;98797.47;;;23.45;75.84
25650;BME280;13505;45.196;5.696;2023-09-18T08:30:41;98804.59;;;23.62;73.43
25650;BME280;13505;45.196;5.696;2023-09-18T08:35:34;98808.63;;;23.58;74.07
25650;BME280;13505;45.196;5.696;2023-09-18T08:40:25;98801.81;;;23.37;75.32
25650;BME280;13505;45.196;5.696;2023-09-18T08:45:22;98809.91;;;23.37;75.77
25650;BME280;13505;45.196;5.696;2023-09-18T08:50:17;98816.44;;;23.35;76.50
25650;BME280;13505;45.196;5.696;2023-09-18T08:55:08;98799.09;;;23.29;77.63
25650;BME280;13505;45.196;5.696;2023-09-18T08:59:59;98808.84;;;23.30;78.10
25650;BME280;13505;45.196;5.696;2023-09-18T09:04:55;98788.91;;;23.41;76.58
25650;BME280;13505;45.196;5.696;2023-09-18T09:09:46;98822.88;;;23.42;77.00
25650;BME280;13505;45.196;5.696;2023-09-18T09:14:37;98817.66;;;23.49;75.49
25650;BME280;13505;45.196;5.696;2023-09-18T09:19:31;98838.78;;;23.70;75.64
25650;BME280;13505;45.196;5.696;2023-09-18T09:24:39;98833.56;;;23.68;74.61
25650;BME280;13505;45.196;5.696;2023-09-18T09:29:30;98834.03;;;23.64;76.49
25650;BME280;13505;45.196;5.696;2023-09-18T09:34:26;98831.38;;;23.72;74.98
25650;BME280;13505;45.196;5.696;2023-09-18T09:39:17;98831.56;;;23.79;75.37
25650;BME280;13505;45.196;5.696;2023-09-18T09:44:13;98833.22;;;23.63;75.39
25650;BME280;13505;45.196;5.696;2023-09-18T09:49:05;98869.47;;;23.51;75.97
25650;BME280;13505;45.196;5.696;2023-09-18T09:53:56;98874.31;;;23.39;79.23
25650;BME280;13505;45.196;5.696;2023-09-18T09:59:00;98850.31;;;23.19;80.86
25650;BME280;13505;45.196;5.696;2023-09-18T10:03:52;98895.53;;;22.71;85.50
25650;BME280;13505;45.196;5.696;2023-09-18T10:08:43;98888.41;;;21.79;91.43
25650;BME280;13505;45.196;5.696;2023-09-18T10:13:41;98862.75;;;21.29;100.00
25650;BME280;13505;45.196;5.696;2023-09-18T10:29:06;98895.19;;;21.45;99.35
25650;BME280;13505;45.196;5.696;2023-09-18T10:33:59;98912.13;;;21.46;96.24
25650;BME280;13505;45.196;5.696;2023-09-18T10:38:52;98920.03;;;21.47;95.22
25650;BME280;13505;45.196;5.696;2023-09-18T10:43:45;98889.81;;;21.45;93.84
25650;BME280;13505;45.196;5.696;2023-09-18T10:48:36;98904.53;;;21.41;95.32
25650;BME280;13505;45.196;5.696;2023-09-18T10:53:27;98944.25;;;21.08;98.84
25650;BME280;13505;45.196;5.696;2023-09-18T10:58:23;98951.75;;;21.14;95.97
25650;BME280;13505;45.196;5.696;2023-09-18T11:03:17;98947.94;;;20.77;100.00
25650;BME280;13505;45.196;5.696;2023-09-18T11:08:32;98924.41;;;20.52;96.82
25650;BME280;13505;45.196;5.696;2023-09-18T11:13:28;98917.50;;;20.69;95.95
25650;BME280;13505;45.196;5.696;2023-09-18T11:18:19;98954.00;;;20.60;100.00
25650;BME280;13505;45.196;5.696;2023-09-18T11:23:18;98904.50;;;20.54;95.91
25650;BME280;13505;45.196;5.696;2023-09-18T11:28:16;98983.97;;;20.14;100.00
25650;BME280;13505;45.196;5.696;2023-09-18T11:33:13;99006.09;;;19.85;100.00
25650;BME280;13505;45.196;5.696;2023-09-18T11:38:10;99012.97;;;19.78;100.00
25650;BME280;13505;45.196;5.696;2023-09-18T11:48:09;98939.84;;;20.08;98.89
25650;BME280;13505;45.196;5.696;2023-09-18T11:53:02;98991.81;;;20.06;100.00
25650;BME280;13505;45.196;5.696;2023-09-18T11:57:53;98974.63;;;19.99;100.00
25650;BME280;13505;45.196;5.696;2023-09-18T12:02:48;98973.28;;;20.24;100.00
25650;BME280;13505;45.196;5.696;2023-09-18T12:07:39;98978.53;;;20.45;100.00
25650;BME280;13505;45.196;5.696;2023-09-18T12:12:33;98956.25;;;20.55;100.00
25650;BME280;13505;45.196;5.696;2023-09-18T12:17:24;98950.91;;;20.64;100.00
25650;BME280;13505;45.196;5.696;2023-09-18T12:22:23;98976.13;;;20.42;100.00
25650;BME280;13505;45.196;5.696;2023-09-18T12:27:13;98967.94;;;20.44;100.00
25650;BME280;13505;45.196;5.696;2023-09-18T12:32:09;99003.09;;;20.50;100.00
25650;BME280;13505;45.196;5.696;2023-09-18T12:37:03;98985.31;;;20.69;100.00
25650;BME280;13505;45.196;5.696;2023-09-18T12:41:54;99004.34;;;20.56;100.00
25650;BME280;13505;45.196;5.696;2023-09-18T12:46:45;99073.50;;;20.31;100.00
25650;BME280;13505;45.196;5.696;2023-09-18T12:51:37;99026.91;;;19.29;100.00
25650;BME280;13505;45.196;5.696;2023-09-18T12:56:27;99019.22;;;19.15;100.00
25650;BME280;13505;45.196;5.696;2023-09-18T13:01:17;99017.69;;;19.64;100.00
25650;BME280;13505;45.196;5.696;2023-09-18T13:06:26;99008.97;;;19.93;100.00
25650;BME280;13505;45.196;5.696;2023-09-18T13:11:17;99035.13;;;20.11;100.00
25650;BME280;13505;45.196;5.696;2023-09-18T13:16:08;99044.00;;;19.59;100.00
25650;BME280;13505;45.196;5.696;2023-09-18T13:20:59;99040.72;;;19.13;100.00
25650;BME280;13505;45.196;5.696;2023-09-18T13:25:50;99042.09;;;19.50;100.00
25650;BME280;13505;45.196;5.696;2023-09-18T13:30:42;99030.94;;;19.66;100.00
25650;BME280;13505;45.196;5.696;2023-09-18T13:35:33;99059.25;;;19.69;100.00
25650;BME280;13505;45.196;5.696;2023-09-18T13:40:24;99063.50;;;19.50;100.00
25650;BME280;13505;45.196;5.696;2023-09-18T13:45:15;99057.50;;;19.58;100.00
25650;BME280;13505;45.196;5.696;2023-09-18T13:50:09;99039.09;;;19.22;100.00
25650;BME280;13505;45.196;5.696;2023-09-18T13:54:59;99017.63;;;19.55;100.00
25650;BME280;13505;45.196;5.696;2023-09-18T13:59:51;99011.84;;;19.80;100.00
25650;BME280;13505;45.196;5.696;2023-09-18T14:04:42;99026.25;;;19.58;100.00
25650;BME280;13505;45.196;5.696;2023-09-18T14:09:32;99005.00;;;19.14;100.00
25650;BME280;13505;45.196;5.696;2023-09-18T14:14:23;99036.47;;;19.10;100.00
25650;BME280;13505;45.196;5.696;2023-09-18T14:19:14;99050.00;;;18.97;100.00
25650;BME280;13505;45.196;5.696;2023-09-18T14:24:04;99063.38;;;18.97;100.00
25650;BME280;13505;45.196;5.696;2023-09-18T14:28:55;99053.94;;;18.82;100.00
25650;BME280;13505;45.196;5.696;2023-09-18T14:33:46;99055.19;;;18.99;100.00
25650;BME280;13505;45.196;5.696;2023-09-18T14:38:36;99027.69;;;19.20;100.00
25650;BME280;13505;45.196;5.696;2023-09-18T14:43:26;99048.34;;;19.18;100.00
25650;BME280;13505;45.196;5.696;2023-09-18T14:48:17;99030.56;;;19.28;100.00
25650;BME280;13505;45.196;5.696;2023-09-18T14:53:07;99033.19;;;19.18;100.00
25650;BME280;13505;45.196;5.696;2023-09-18T14:57:58;99032.00;;;19.00;100.00
25650;BME280;13505;45.196;5.696;2023-09-18T15:02:49;99017.00;;;19.20;100.00
25650;BME280;13505;45.196;5.696;2023-09-18T15:07:40;99007.72;;;19.45;100.00
25650;BME280;13505;45.196;5.696;2023-09-18T15:12:30;99024.34;;;19.28;100.00
25650;BME280;13505;45.196;5.696;2023-09-18T15:17:21;99037.66;;;19.18;100.00
25650;BME280;13505;45.196;5.696;2023-09-18T15:22:11;99017.13;;;19.39;100.00
25650;BME280;13505;45.196;5.696;2023-09-18T15:27:02;99036.63;;;19.09;100.00
25650;BME280;13505;45.196;5.696;2023-09-18T15:31:52;99026.38;;;19.14;100.00
25650;BME280;13505;45.196;5.696;2023-09-18T15:36:43;99035.25;;;19.36;100.00
25650;BME280;13505;45.196;5.696;2023-09-18T15:41:33;99038.22;;;19.00;100.00
25650;BME280;13505;45.196;5.696;2023-09-18T15:46:24;99030.50;;;19.18;100.00
25650;BME280;13505;45.196;5.696;2023-09-18T15:51:15;99011.38;;;19.44;100.00
25650;BME280;13505;45.196;5.696;2023-09-18T15:56:05;99001.31;;;19.58;100.00
25650;BME280;13505;45.196;5.696;2023-09-18T16:00:55;99001.28;;;19.79;100.00
25650;BME280;13505;45.196;5.696;2023-09-18T16:05:48;99005.59;;;19.39;100.00
25650;BME280;13505;45.196;5.696;2023-09-18T16:10:41;99000.63;;;20.28;100.00
25650;BME280;13505;45.196;5.696;2023-09-18T16:15:33;99011.50;;;20.36;100.00
25650;BME280;13505;45.196;5.696;2023-09-18T16:20:23;99012.31;;;20.27;100.00
25650;BME280;13505;45.196;5.696;2023-09-18T16:25:14;99016.78;;;20.16;100.00
25650;BME280;13505;45.196;5.696;2023-09-18T16:30:05;99027.03;;;20.42;100.00
25650;BME280;13505;45.196;5.696;2023-09-18T16:34:56;99030.19;;;20.16;100.00
25650;BME280;13505;45.196;5.696;2023-09-18T16:39:46;99025.59;;;20.38;100.00
25650;BME280;13505;45.196;5.696;2023-09-18T16:44:36;99037.47;;;20.45;100.00
25650;BME280;13505;45.196;5.696;2023-09-18T16:49:29;99037.50;;;20.55;100.00
25650;BME280;13505;45.196;5.696;2023-09-18T16:54:20;99031.81;;;20.39;100.00
25650;BME280;13505;45.196;5.696;2023-09-18T16:59:13;99043.25;;;20.50;100.00
25650;BME280;13505;45.196;5.696;2023-09-18T17:04:04;99059.97;;;20.33;100.00
25650;BME280;13505;45.196;5.696;2023-09-18T17:08:55;99063.25;;;20.87;95.91
25650;BME280;13505;45.196;5.696;2023-09-18T17:13:45;99062.44;;;20.56;97.52
25650;BME280;13505;45.196;5.696;2023-09-18T17:18:36;99050.09;;;20.84;94.82
25650;BME280;13505;45.196;5.696;2023-09-18T17:23:28;99051.53;;;20.88;93.22
25650;BME280;13505;45.196;5.696;2023-09-18T17:28:19;99050.69;;;20.98;92.37
25650;BME280;13505;45.196;5.696;2023-09-18T17:33:09;99048.13;;;20.86;93.33
25650;BME280;13505;45.196;5.696;2023-09-18T17:38:00;99035.38;;;20.69;94.14
25650;BME280;13505;45.196;5.696;2023-09-18T17:42:51;99037.03;;;20.50;96.92
25650;BME280;13505;45.196;5.696;2023-09-18T17:47:43;99044.97;;;20.61;95.57
25650;BME280;13505;45.196;5.696;2023-09-18T17:52:33;99033.88;;;20.96;91.93
25650;BME280;13505;45.196;5.696;2023-09-18T17:57:26;99051.94;;;20.84;92.22
25650;BME280;13505;45.196;5.696;2023-09-18T18:02:17;99050.78;;;20.76;93.16
25650;BME280;13505;45.196;5.696;2023-09-18T18:07:07;99053.63;;;20.85;92.29
25650;BME280;13505;45.196;5.696;2023-09-18T18:11:58;99045.31;;;20.88;92.40
25650;BME280;13505;45.196;5.696;2023-09-18T18:16:51;99051.22;;;20.82;91.93
25650;BME280;13505;45.196;5.696;2023-09-18T18:21:42;99045.72;;;20.83;92.20
25650;BME280;13505;45.196;5.696;2023-09-18T18:26:32;99043.09;;;20.52;94.02
25650;BME280;13505;45.196;5.696;2023-09-18T18:31:24;99035.09;;;20.62;94.69
25650;BME280;13505;45.196;5.696;2023-09-18T18:36:14;99044.53;;;20.66;94.27
25650;BME280;13505;45.196;5.696;2023-09-18T18:41:05;99046.38;;;20.56;94.64
25650;BME280;13505;45.196;5.696;2023-09-18T18:45:55;99057.47;;;20.41;95.64
25650;BME280;13505;45.196;5.696;2023-09-18T18:50:49;99054.84;;;20.71;93.49
25650;BME280;13505;45.196;5.696;2023-09-18T18:55:39;99069.06;;;20.52;92.45
25650;BME280;13505;45.196;5.696;2023-09-18T19:00:30;99070.31;;;20.47;93.99
25650;BME280;13505;45.196;5.696;2023-09-18T19:05:22;99069.88;;;20.42;95.24
25650;BME280;13505;45.196;5.696;2023-09-18T19:10:14;99088.34;;;20.45;95.38
25650;BME280;13505;45.196;5.696;2023-09-18T19:15:05;99080.13;;;20.37;95.63
25650;BME280;13505;45.196;5.696;2023-09-18T19:19:55;99073.38;;;20.33;95.27
25650;BME280;13505;45.196;5.696;2023-09-18T19:24:46;99087.19;;;20.38;95.64
25650;BME280;13505;45.196;5.696;2023-09-18T19:29:36;99093.41;;;20.39;95.46
25650;BME280;13505;45.196;5.696;2023-09-18T19:34:27;99088.66;;;20.11;97.57
25650;BME280;13505;45.196;5.696;2023-09-18T19:39:17;99098.69;;;19.66;100.00
25650;BME280;13505;45.196;5.696;2023-09-18T19:44:08;99092.44;;;19.23;100.00
25650;BME280;13505;45.196;5.696;2023-09-18T19:48:58;99098.97;;;19.31;100.00
25650;BME280;13505;45.196;5.696;2023-09-18T19:53:49;99115.25;;;19.28;100.00
25650;BME280;13505;45.196;5.696;2023-09-18T19:58:39;99138.88;;;19.22;100.00
25650;BME280;13505;45.196;5.696;2023-09-18T20:03:29;99133.56;;;19.11;100.00
25650;BME280;13505;45.196;5.696;2023-09-18T20:08:20;99139.03;;;19.09;100.00
25650;BME280;13505;45.196;5.696;2023-09-18T20:13:10;99140.25;;;19.05;100.00
25650;BME280;13505;45.196;5.696;2023-09-18T20:18:00;99141.97;;;19.06;100.00
25650;BME280;13505;45.196;5.696;2023-09-18T20:22:51;99153.13;;;19.00;100.00
25650;BME280;13505;45.196;5.696;2023-09-18T20:27:41;99149.63;;;18.88;100.00
25650;BME280;13505;45.196;5.696;2023-09-18T20:32:32;99151.09;;;18.81;100.00
25650;BME280;13505;45.196;5.696;2023-09-18T20:37:23;99161.44;;;18.63;100.00
25650;BME280;13505;45.196;5.696;2023-09-18T20:42:13;99167.25;;;18.57;100.00
25650;BME280;13505;45.196;5.696;2023-09-18T20:47:04;99168.38;;;18.65;100.00
25650;BME280;13505;45.196;5.696;2023-09-18T20:51:54;99166.28;;;18.69;100.00
25650;BME280;13505;45.196;5.696;2023-09-18T20:56:44;99181.59;;;18.67;100.00
25650;BME280;13505;45.196;5.696;2023-09-18T21:01:35;99193.72;;;18.82;100.00
25650;BME280;13505;45.196;5.696;2023-09-18T21:06:25;99189.38;;;18.70;100.00
25650;BME280;13505;45.196;5.696;2023-09-18T21:11:16;99156.63;;;17.98;100.00
25650;BME280;13505;45.196;5.696;2023-09-18T21:16:06;99186.94;;;18.44;100.00
25650;BME280;13505;45.196;5.696;2023-09-18T21:20:57;99195.66;;;18.69;100.00
25650;BME280;13505;45.196;5.696;2023-09-18T21:25:49;99210.38;;;18.75;100.00
25650;BME280;13505;45.196;5.696;2023-09-18T21:30:40;99213.75;;;18.88;100.00
25650;BME280;13505;45.196;5.696;2023-09-18T21:35:31;99221.44;;;18.81;100.00
25650;BME280;13505;45.196;5.696;2023-09-18T21:40:21;99225.19;;;18.79;100.00
25650;BME280;13505;45.196;5.696;2023-09-18T21:45:13;99231.13;;;18.82;100.00
25650;BME280;13505;45.196;5.696;2023-09-18T21:50:03;99235.09;;;18.42;100.00
25650;BME280;13505;45.196;5.696;2023-09-18T21:54:57;99226.69;;;18.13;100.00
25650;BME280;13505;45.196;5.696;2023-09-18T21:59:47;99237.41;;;18.47;100.00
